sensor_id;sensor_type;location;lat;lon;timestamp;P1;durP1;ratioP1;P2;durP2;ratioP2
1416;SDS011;703;51.162;13.574;2022-12-07T00:01:07;60.50;;;20.30;;
1416;SDS011;703;51.162;13.574;2022-12-07T00:03:33;59.80;;;19.57;;
1416;SDS011;703;51.162;13.574;2022-12-07T00:06:01;57.80;;;19.33;;
1416;SDS011;703;51.162;13.574;2022-12-07T00:08:27;59.90;;;18.73;;
1416;SDS011;703;51.162;13.574;2022-12-07T00:10:53;59.20;;;18.63;;
1416;SDS011;703;51.162;13.574;2022-12-07T00:13:19;59.07;;;19.70;;
1416;SDS011;703;51.162;13.574;2022-12-07T00:15:45;62.73;;;21.83;;
1416;SDS011;703;51.162;13.574;2022-12-07T00:18:11;58.50;;;17.97;;
1416;SDS011;703;51.162;13.574;2022-12-07T00:20:37;57.67;;;18.37;;
1416;SDS011;703;51.162;13.574;2022-12-07T00:23:03;59.30;;;17.93;;
1416;SDS011;703;51.162;13.574;2022-12-07T00:25:29;56.50;;;18.53;;
1416;SDS011;703;51.162;13.574;2022-12-07T00:27:55;58.67;;;20.03;;
1416;SDS011;703;51.162;13.574;2022-12-07T00:30:22;56.43;;;17.70;;
1416;SDS011;703;51.162;13.574;2022-12-07T00:32:48;57.10;;;17.53;;
1416;SDS011;703;51.162;13.574;2022-12-07T00:35:14;59.33;;;19.03;;
1416;SDS011;703;51.162;13.574;2022-12-07T00:37:40;56.97;;;17.03;;
1416;SDS011;703;51.162;13.574;2022-12-07T00:40:06;60.10;;;19.77;;
1416;SDS011;703;51.162;13.574;2022-12-07T00:42:32;58.87;;;18.60;;
1416;SDS011;703;51.162;13.574;2022-12-07T00:44:58;56.40;;;17.63;;
1416;SDS011;703;51.162;13.574;2022-12-07T00:47:23;57.73;;;18.77;;
1416;SDS011;703;51.162;13.574;2022-12-07T00:49:49;58.90;;;20.53;;
1416;SDS011;703;51.162;13.574;2022-12-07T00:52:15;58.23;;;18.40;;
1416;SDS011;703;51.162;13.574;2022-12-07T00:54:41;57.90;;;17.70;;
1416;SDS011;703;51.162;13.574;2022-12-07T00:57:07;57.43;;;19.57;;
1416;SDS011;703;51.162;13.574;2022-12-07T00:59:33;59.20;;;18.90;;
1416;SDS011;703;51.162;13.574;2022-12-07T01:02:00;60.73;;;20.63;;
1416;SDS011;703;51.162;13.574;2022-12-07T01:04:26;55.70;;;17.17;;
1416;SDS011;703;51.162;13.574;2022-12-07T01:06:52;60.70;;;20.80;;
1416;SDS011;703;51.162;13.574;2022-12-07T01:09:18;57.43;;;18.30;;
1416;SDS011;703;51.162;13.574;2022-12-07T01:11:44;61.10;;;21.33;;
1416;SDS011;703;51.162;13.574;2022-12-07T01:14:13;59.83;;;19.77;;
1416;SDS011;703;51.162;13.574;2022-12-07T01:16:38;57.83;;;20.47;;
1416;SDS011;703;51.162;13.574;2022-12-07T01:19:05;58.80;;;20.17;;
1416;SDS011;703;51.162;13.574;2022-12-07T01:21:31;59.03;;;20.70;;
1416;SDS011;703;51.162;13.574;2022-12-07T01:24:06;59.87;;;19.63;;
1416;SDS011;703;51.162;13.574;2022-12-07T01:26:34;56.23;;;18.43;;
1416;SDS011;703;51.162;13.574;2022-12-07T01:29:00;57.73;;;20.17;;
1416;SDS011;703;51.162;13.574;2022-12-07T01:31:26;58.90;;;21.07;;
1416;SDS011;703;51.162;13.574;2022-12-07T01:33:53;56.90;;;18.00;;
1416;SDS011;703;51.162;13.574;2022-12-07T01:36:24;58.43;;;20.70;;
1416;SDS011;703;51.162;13.574;2022-12-07T01:38:54;57.90;;;19.83;;
1416;SDS011;703;51.162;13.574;2022-12-07T01:41:22;57.93;;;19.80;;
1416;SDS011;703;51.162;13.574;2022-12-07T01:46:40;59.23;;;19.67;;
1416;SDS011;703;51.162;13.574;2022-12-07T01:49:21;58.27;;;19.27;;
1416;SDS011;703;51.162;13.574;2022-12-07T01:52:36;57.67;;;19.27;;
1416;SDS011;703;51.162;13.574;2022-12-07T01:54:56;58.40;;;19.80;;
1416;SDS011;703;51.162;13.574;2022-12-07T01:57:24;56.87;;;17.67;;
1416;SDS011;703;51.162;13.574;2022-12-07T01:59:51;56.17;;;18.07;;
1416;SDS011;703;51.162;13.574;2022-12-07T02:02:28;57.10;;;18.20;;
1416;SDS011;703;51.162;13.574;2022-12-07T02:05:00;54.47;;;17.70;;
1416;SDS011;703;51.162;13.574;2022-12-07T02:07:28;58.07;;;20.07;;
1416;SDS011;703;51.162;13.574;2022-12-07T02:09:54;57.50;;;18.47;;
1416;SDS011;703;51.162;13.574;2022-12-07T02:12:20;55.23;;;18.03;;
1416;SDS011;703;51.162;13.574;2022-12-07T02:14:47;57.10;;;17.63;;
1416;SDS011;703;51.162;13.574;2022-12-07T02:17:20;55.40;;;18.03;;
1416;SDS011;703;51.162;13.574;2022-12-07T02:20:00;55.10;;;16.37;;
1416;SDS011;703;51.162;13.574;2022-12-07T02:22:37;58.20;;;18.63;;
1416;SDS011;703;51.162;13.574;2022-12-07T02:30:58;54.93;;;16.30;;
1416;SDS011;703;51.162;13.574;2022-12-07T02:33:41;56.17;;;18.77;;
1416;SDS011;703;51.162;13.574;2022-12-07T02:39:03;55.57;;;16.40;;
1416;SDS011;703;51.162;13.574;2022-12-07T02:41:42;56.80;;;18.50;;
1416;SDS011;703;51.162;13.574;2022-12-07T02:44:11;56.83;;;17.30;;
1416;SDS011;703;51.162;13.574;2022-12-07T02:46:46;55.87;;;16.80;;
1416;SDS011;703;51.162;13.574;2022-12-07T02:49:23;60.93;;;20.77;;
1416;SDS011;703;51.162;13.574;2022-12-07T02:51:51;55.23;;;17.10;;
1416;SDS011;703;51.162;13.574;2022-12-07T02:54:18;58.10;;;18.73;;
1416;SDS011;703;51.162;13.574;2022-12-07T02:56:49;56.87;;;18.40;;
1416;SDS011;703;51.162;13.574;2022-12-07T03:08:17;58.20;;;19.20;;
1416;SDS011;703;51.162;13.574;2022-12-07T03:19:44;58.27;;;18.60;;
1416;SDS011;703;51.162;13.574;2022-12-07T03:22:12;59.57;;;20.40;;
1416;SDS011;703;51.162;13.574;2022-12-07T03:24:49;63.50;;;20.97;;
1416;SDS011;703;51.162;13.574;2022-12-07T03:27:20;60.87;;;19.90;;
1416;SDS011;703;51.162;13.574;2022-12-07T03:29:59;58.27;;;20.63;;
1416;SDS011;703;51.162;13.574;2022-12-07T03:32:33;61.20;;;21.57;;
1416;SDS011;703;51.162;13.574;2022-12-07T03:35:06;61.77;;;21.03;;
1416;SDS011;703;51.162;13.574;2022-12-07T03:43:19;63.07;;;21.13;;
1416;SDS011;703;51.162;13.574;2022-12-07T03:45:50;63.93;;;23.33;;
1416;SDS011;703;51.162;13.574;2022-12-07T03:48:41;62.07;;;20.13;;
1416;SDS011;703;51.162;13.574;2022-12-07T03:54:39;59.03;;;18.47;;
1416;SDS011;703;51.162;13.574;2022-12-07T03:57:07;61.03;;;21.37;;
1416;SDS011;703;51.162;13.574;2022-12-07T03:59:35;61.87;;;21.27;;
1416;SDS011;703;51.162;13.574;2022-12-07T04:02:04;58.20;;;19.50;;
1416;SDS011;703;51.162;13.574;2022-12-07T04:04:31;62.33;;;21.40;;
1416;SDS011;703;51.162;13.574;2022-12-07T04:06:57;60.53;;;20.73;;
1416;SDS011;703;51.162;13.574;2022-12-07T04:09:22;59.73;;;20.90;;
1416;SDS011;703;51.162;13.574;2022-12-07T04:11:48;59.13;;;20.03;;
1416;SDS011;703;51.162;13.574;2022-12-07T04:14:15;58.00;;;19.27;;
1416;SDS011;703;51.162;13.574;2022-12-07T04:16:47;60.17;;;18.30;;
1416;SDS011;703;51.162;13.574;2022-12-07T04:19:15;60.00;;;20.07;;
1416;SDS011;703;51.162;13.574;2022-12-07T04:21:42;59.60;;;19.60;;
1416;SDS011;703;51.162;13.574;2022-12-07T04:24:08;58.47;;;19.67;;
1416;SDS011;703;51.162;13.574;2022-12-07T04:26:34;59.33;;;20.63;;
1416;SDS011;703;51.162;13.574;2022-12-07T04:29:00;69.93;;;18.70;;
1416;SDS011;703;51.162;13.574;2022-12-07T04:31:26;60.80;;;21.43;;
1416;SDS011;703;51.162;13.574;2022-12-07T04:33:51;59.33;;;21.60;;
1416;SDS011;703;51.162;13.574;2022-12-07T04:36:17;60.63;;;20.80;;
1416;SDS011;703;51.162;13.574;2022-12-07T04:38:44;57.93;;;18.63;;
1416;SDS011;703;51.162;13.574;2022-12-07T04:41:10;58.47;;;20.83;;
1416;SDS011;703;51.162;13.574;2022-12-07T04:43:37;60.80;;;21.70;;
1416;SDS011;703;51.162;13.574;2022-12-07T04:46:03;61.60;;;20.23;;
1416;SDS011;703;51.162;13.574;2022-12-07T04:48:29;59.60;;;21.03;;
1416;SDS011;703;51.162;13.574;2022-12-07T04:50:55;62.37;;;21.77;;
1416;SDS011;703;51.162;13.574;2022-12-07T04:53:21;58.90;;;20.03;;
1416;SDS011;703;51.162;13.574;2022-12-07T04:55:47;62.33;;;19.33;;
1416;SDS011;703;51.162;13.574;2022-12-07T04:58:13;58.77;;;19.40;;
1416;SDS011;703;51.162;13.574;2022-12-07T05:00:40;55.90;;;17.60;;
1416;SDS011;703;51.162;13.574;2022-12-07T05:03:06;59.67;;;20.10;;
1416;SDS011;703;51.162;13.574;2022-12-07T05:05:32;57.37;;;17.37;;
1416;SDS011;703;51.162;13.574;2022-12-07T05:07:58;57.97;;;17.20;;
1416;SDS011;703;51.162;13.574;2022-12-07T05:10:24;58.10;;;17.90;;
1416;SDS011;703;51.162;13.574;2022-12-07T05:12:50;54.00;;;14.83;;
1416;SDS011;703;51.162;13.574;2022-12-07T05:15:16;56.30;;;16.83;;
1416;SDS011;703;51.162;13.574;2022-12-07T05:17:42;55.40;;;16.73;;
1416;SDS011;703;51.162;13.574;2022-12-07T05:20:08;56.43;;;16.80;;
1416;SDS011;703;51.162;13.574;2022-12-07T05:22:35;55.00;;;16.07;;
1416;SDS011;703;51.162;13.574;2022-12-07T05:25:01;52.70;;;13.63;;
1416;SDS011;703;51.162;13.574;2022-12-07T05:27:28;55.10;;;15.13;;
1416;SDS011;703;51.162;13.574;2022-12-07T05:29:53;52.20;;;14.90;;
1416;SDS011;703;51.162;13.574;2022-12-07T05:32:19;53.40;;;15.00;;
1416;SDS011;703;51.162;13.574;2022-12-07T05:34:45;53.10;;;14.80;;
1416;SDS011;703;51.162;13.574;2022-12-07T05:37:11;52.17;;;13.47;;
1416;SDS011;703;51.162;13.574;2022-12-07T05:39:37;53.10;;;12.97;;
1416;SDS011;703;51.162;13.574;2022-12-07T05:42:05;53.03;;;13.20;;
1416;SDS011;703;51.162;13.574;2022-12-07T05:44:41;52.90;;;13.30;;
1416;SDS011;703;51.162;13.574;2022-12-07T05:47:08;51.67;;;14.30;;
1416;SDS011;703;51.162;13.574;2022-12-07T05:49:34;50.60;;;12.80;;
1416;SDS011;703;51.162;13.574;2022-12-07T05:52:00;50.67;;;13.87;;
1416;SDS011;703;51.162;13.574;2022-12-07T05:54:26;50.70;;;12.57;;
1416;SDS011;703;51.162;13.574;2022-12-07T05:56:52;51.47;;;13.53;;
1416;SDS011;703;51.162;13.574;2022-12-07T05:59:18;51.50;;;13.80;;
1416;SDS011;703;51.162;13.574;2022-12-07T06:01:47;51.00;;;13.30;;
1416;SDS011;703;51.162;13.574;2022-12-07T06:04:34;50.50;;;12.37;;
1416;SDS011;703;51.162;13.574;2022-12-07T06:07:02;51.27;;;13.23;;
1416;SDS011;703;51.162;13.574;2022-12-07T06:09:28;49.40;;;13.13;;
1416;SDS011;703;51.162;13.574;2022-12-07T06:11:58;48.97;;;12.50;;
1416;SDS011;703;51.162;13.574;2022-12-07T06:14:42;50.23;;;13.23;;
1416;SDS011;703;51.162;13.574;2022-12-07T06:17:09;49.30;;;13.03;;
1416;SDS011;703;51.162;13.574;2022-12-07T06:19:35;50.33;;;13.57;;
1416;SDS011;703;51.162;13.574;2022-12-07T06:22:01;49.80;;;12.73;;
1416;SDS011;703;51.162;13.574;2022-12-07T06:24:27;49.10;;;13.30;;
1416;SDS011;703;51.162;13.574;2022-12-07T06:26:53;49.20;;;12.73;;
1416;SDS011;703;51.162;13.574;2022-12-07T06:29:19;50.77;;;11.50;;
1416;SDS011;703;51.162;13.574;2022-12-07T06:31:45;48.87;;;12.40;;
1416;SDS011;703;51.162;13.574;2022-12-07T06:34:13;48.50;;;12.50;;
1416;SDS011;703;51.162;13.574;2022-12-07T06:36:40;50.30;;;13.30;;
1416;SDS011;703;51.162;13.574;2022-12-07T06:39:06;49.17;;;12.23;;
1416;SDS011;703;51.162;13.574;2022-12-07T06:41:34;49.13;;;13.23;;
1416;SDS011;703;51.162;13.574;2022-12-07T06:44:01;51.27;;;14.17;;
1416;SDS011;703;51.162;13.574;2022-12-07T06:46:27;54.40;;;14.30;;
1416;SDS011;703;51.162;13.574;2022-12-07T06:48:52;48.43;;;12.63;;
1416;SDS011;703;51.162;13.574;2022-12-07T06:51:19;51.60;;;14.87;;
1416;SDS011;703;51.162;13.574;2022-12-07T06:53:44;52.97;;;15.60;;
1416;SDS011;703;51.162;13.574;2022-12-07T06:56:10;51.70;;;14.33;;
1416;SDS011;703;51.162;13.574;2022-12-07T06:58:36;51.17;;;14.50;;
1416;SDS011;703;51.162;13.574;2022-12-07T07:01:02;52.10;;;15.00;;
1416;SDS011;703;51.162;13.574;2022-12-07T07:03:28;50.80;;;14.03;;
1416;SDS011;703;51.162;13.574;2022-12-07T07:05:53;52.80;;;14.13;;
1416;SDS011;703;51.162;13.574;2022-12-07T07:08:19;51.73;;;15.20;;
1416;SDS011;703;51.162;13.574;2022-12-07T07:10:45;52.93;;;14.67;;
1416;SDS011;703;51.162;13.574;2022-12-07T07:13:11;57.10;;;16.13;;
1416;SDS011;703;51.162;13.574;2022-12-07T07:15:38;53.23;;;14.17;;
1416;SDS011;703;51.162;13.574;2022-12-07T07:18:04;52.77;;;15.20;;
1416;SDS011;703;51.162;13.574;2022-12-07T07:20:30;52.70;;;15.03;;
1416;SDS011;703;51.162;13.574;2022-12-07T07:22:56;51.80;;;15.97;;
1416;SDS011;703;51.162;13.574;2022-12-07T07:25:22;52.60;;;14.83;;
1416;SDS011;703;51.162;13.574;2022-12-07T07:27:48;52.97;;;15.30;;
1416;SDS011;703;51.162;13.574;2022-12-07T07:30:13;55.00;;;15.40;;
1416;SDS011;703;51.162;13.574;2022-12-07T07:32:39;51.40;;;14.13;;
1416;SDS011;703;51.162;13.574;2022-12-07T07:35:05;52.67;;;16.07;;
1416;SDS011;703;51.162;13.574;2022-12-07T07:37:31;53.70;;;15.70;;
1416;SDS011;703;51.162;13.574;2022-12-07T07:39:57;52.30;;;14.63;;
1416;SDS011;703;51.162;13.574;2022-12-07T07:42:23;52.00;;;14.10;;
1416;SDS011;703;51.162;13.574;2022-12-07T07:44:49;53.33;;;16.53;;
1416;SDS011;703;51.162;13.574;2022-12-07T07:47:15;53.77;;;16.03;;
1416;SDS011;703;51.162;13.574;2022-12-07T07:49:41;53.47;;;15.97;;
1416;SDS011;703;51.162;13.574;2022-12-07T07:52:07;53.70;;;17.03;;
1416;SDS011;703;51.162;13.574;2022-12-07T07:54:32;53.20;;;16.00;;
1416;SDS011;703;51.162;13.574;2022-12-07T07:56:58;54.00;;;16.30;;
1416;SDS011;703;51.162;13.574;2022-12-07T07:59:24;56.27;;;16.53;;
1416;SDS011;703;51.162;13.574;2022-12-07T08:01:50;56.07;;;19.20;;
1416;SDS011;703;51.162;13.574;2022-12-07T08:04:16;57.13;;;18.70;;
1416;SDS011;703;51.162;13.574;2022-12-07T08:06:42;54.70;;;16.97;;
1416;SDS011;703;51.162;13.574;2022-12-07T08:09:08;54.90;;;17.77;;
1416;SDS011;703;51.162;13.574;2022-12-07T08:11:34;54.33;;;17.40;;
1416;SDS011;703;51.162;13.574;2022-12-07T08:14:01;53.20;;;16.23;;
1416;SDS011;703;51.162;13.574;2022-12-07T08:16:27;61.70;;;19.20;;
1416;SDS011;703;51.162;13.574;2022-12-07T08:18:53;53.90;;;17.37;;
1416;SDS011;703;51.162;13.574;2022-12-07T08:21:19;54.43;;;16.50;;
1416;SDS011;703;51.162;13.574;2022-12-07T08:23:45;54.07;;;18.63;;
1416;SDS011;703;51.162;13.574;2022-12-07T08:26:13;53.30;;;15.80;;
1416;SDS011;703;51.162;13.574;2022-12-07T08:28:40;54.00;;;17.20;;
1416;SDS011;703;51.162;13.574;2022-12-07T08:31:07;54.70;;;16.50;;
1416;SDS011;703;51.162;13.574;2022-12-07T08:33:37;54.87;;;17.70;;
1416;SDS011;703;51.162;13.574;2022-12-07T08:36:04;57.77;;;17.83;;
1416;SDS011;703;51.162;13.574;2022-12-07T08:38:33;54.97;;;18.53;;
1416;SDS011;703;51.162;13.574;2022-12-07T08:41:00;53.60;;;17.33;;
1416;SDS011;703;51.162;13.574;2022-12-07T08:43:26;52.50;;;16.23;;
1416;SDS011;703;51.162;13.574;2022-12-07T08:49:05;53.63;;;16.23;;
1416;SDS011;703;51.162;13.574;2022-12-07T08:51:35;54.10;;;19.00;;
1416;SDS011;703;51.162;13.574;2022-12-07T08:54:03;54.70;;;16.50;;
1416;SDS011;703;51.162;13.574;2022-12-07T08:56:31;52.60;;;14.93;;
1416;SDS011;703;51.162;13.574;2022-12-07T08:58:57;56.47;;;18.40;;
1416;SDS011;703;51.162;13.574;2022-12-07T09:01:24;54.27;;;16.77;;
1416;SDS011;703;51.162;13.574;2022-12-07T09:03:50;54.15;;;26.30;;
1416;SDS011;703;51.162;13.574;2022-12-07T09:06:16;52.93;;;16.90;;
1416;SDS011;703;51.162;13.574;2022-12-07T09:08:43;52.17;;;18.47;;
1416;SDS011;703;51.162;13.574;2022-12-07T09:11:11;52.37;;;15.67;;
1416;SDS011;703;51.162;13.574;2022-12-07T09:13:37;50.60;;;15.27;;
1416;SDS011;703;51.162;13.574;2022-12-07T09:16:03;52.73;;;15.77;;
1416;SDS011;703;51.162;13.574;2022-12-07T09:18:29;52.90;;;15.40;;
1416;SDS011;703;51.162;13.574;2022-12-07T09:20:55;53.20;;;17.40;;
1416;SDS011;703;51.162;13.574;2022-12-07T09:23:21;53.30;;;16.50;;
1416;SDS011;703;51.162;13.574;2022-12-07T09:25:47;52.67;;;19.13;;
1416;SDS011;703;51.162;13.574;2022-12-07T09:28:13;51.43;;;15.93;;
1416;SDS011;703;51.162;13.574;2022-12-07T09:30:45;51.80;;;16.23;;
1416;SDS011;703;51.162;13.574;2022-12-07T09:33:11;55.10;;;16.80;;
1416;SDS011;703;51.162;13.574;2022-12-07T09:35:37;50.03;;;14.50;;
1416;SDS011;703;51.162;13.574;2022-12-07T09:38:03;53.70;;;16.70;;
1416;SDS011;703;51.162;13.574;2022-12-07T09:40:29;53.90;;;14.63;;
1416;SDS011;703;51.162;13.574;2022-12-07T09:42:55;50.70;;;15.00;;
1416;SDS011;703;51.162;13.574;2022-12-07T09:45:26;51.80;;;15.93;;
1416;SDS011;703;51.162;13.574;2022-12-07T09:47:58;50.23;;;14.53;;
1416;SDS011;703;51.162;13.574;2022-12-07T09:50:24;50.20;;;13.90;;
1416;SDS011;703;51.162;13.574;2022-12-07T09:52:52;49.43;;;13.97;;
1416;SDS011;703;51.162;13.574;2022-12-07T09:55:21;51.87;;;15.93;;
1416;SDS011;703;51.162;13.574;2022-12-07T09:57:49;55.13;;;14.50;;
1416;SDS011;703;51.162;13.574;2022-12-07T10:00:17;49.83;;;14.30;;
1416;SDS011;703;51.162;13.574;2022-12-07T10:05:32;50.77;;;16.57;;
1416;SDS011;703;51.162;13.574;2022-12-07T10:08:14;51.20;;;16.00;;
1416;SDS011;703;51.162;13.574;2022-12-07T10:10:44;48.47;;;14.73;;
1416;SDS011;703;51.162;13.574;2022-12-07T10:13:15;50.00;;;14.03;;
1416;SDS011;703;51.162;13.574;2022-12-07T10:15:52;51.00;;;16.20;;
1416;SDS011;703;51.162;13.574;2022-12-07T10:18:31;54.63;;;14.23;;
1416;SDS011;703;51.162;13.574;2022-12-07T10:21:02;54.10;;;14.87;;
1416;SDS011;703;51.162;13.574;2022-12-07T10:23:35;51.23;;;13.60;;
1416;SDS011;703;51.162;13.574;2022-12-07T10:26:46;53.80;;;14.10;;
1416;SDS011;703;51.162;13.574;2022-12-07T10:32:25;47.90;;;13.07;;
1416;SDS011;703;51.162;13.574;2022-12-07T10:37:50;50.60;;;13.30;;
1416;SDS011;703;51.162;13.574;2022-12-07T10:40:33;50.53;;;13.50;;
1416;SDS011;703;51.162;13.574;2022-12-07T10:43:17;45.17;;;8.05;;
1416;SDS011;703;51.162;13.574;2022-12-07T10:50:52;47.03;;;12.00;;
1416;SDS011;703;51.162;13.574;2022-12-07T10:53:48;49.23;;;16.73;;
1416;SDS011;703;51.162;13.574;2022-12-07T10:56:28;49.60;;;15.60;;
1416;SDS011;703;51.162;13.574;2022-12-07T11:01:50;50.00;;;14.10;;
1416;SDS011;703;51.162;13.574;2022-12-07T11:11:54;50.20;;;14.67;;
1416;SDS011;703;51.162;13.574;2022-12-07T11:17:14;49.67;;;13.80;;
1416;SDS011;703;51.162;13.574;2022-12-07T11:25:49;53.53;;;14.80;;
1416;SDS011;703;51.162;13.574;2022-12-07T11:30:49;47.40;;;12.20;;
1416;SDS011;703;51.162;13.574;2022-12-07T11:33:55;49.07;;;12.63;;
1416;SDS011;703;51.162;13.574;2022-12-07T11:36:41;48.70;;;11.97;;
1416;SDS011;703;51.162;13.574;2022-12-07T11:39:21;49.10;;;12.90;;
1416;SDS011;703;51.162;13.574;2022-12-07T11:42:03;50.10;;;13.80;;
1416;SDS011;703;51.162;13.574;2022-12-07T11:52:56;50.40;;;14.70;;
1416;SDS011;703;51.162;13.574;2022-12-07T11:58:04;51.23;;;15.13;;
1416;SDS011;703;51.162;13.574;2022-12-07T12:00:38;51.13;;;15.10;;
1416;SDS011;703;51.162;13.574;2022-12-07T12:03:12;51.80;;;13.87;;
1416;SDS011;703;51.162;13.574;2022-12-07T12:05:45;52.37;;;16.23;;
1416;SDS011;703;51.162;13.574;2022-12-07T12:08:13;60.77;;;23.73;;
1416;SDS011;703;51.162;13.574;2022-12-07T12:22:27;50.70;;;14.90;;
1416;SDS011;703;51.162;13.574;2022-12-07T12:25:07;52.70;;;15.83;;
1416;SDS011;703;51.162;13.574;2022-12-07T12:28:01;48.97;;;13.97;;
1416;SDS011;703;51.162;13.574;2022-12-07T12:30:31;49.50;;;14.07;;
1416;SDS011;703;51.162;13.574;2022-12-07T12:51:44;48.90;;;11.80;;
1416;SDS011;703;51.162;13.574;2022-12-07T12:57:49;49.27;;;15.87;;
1416;SDS011;703;51.162;13.574;2022-12-07T13:05:18;49.23;;;10.97;;
1416;SDS011;703;51.162;13.574;2022-12-07T13:08:03;48.50;;;11.70;;
1416;SDS011;703;51.162;13.574;2022-12-07T13:10:49;42.95;;;5.88;;
1416;SDS011;703;51.162;13.574;2022-12-07T13:18:40;47.97;;;10.50;;
1416;SDS011;703;51.162;13.574;2022-12-07T13:36:59;49.10;;;13.00;;
1416;SDS011;703;51.162;13.574;2022-12-07T13:39:27;49.97;;;13.67;;
1416;SDS011;703;51.162;13.574;2022-12-07T13:41:54;49.33;;;12.90;;
1416;SDS011;703;51.162;13.574;2022-12-07T13:44:22;51.60;;;14.27;;
1416;SDS011;703;51.162;13.574;2022-12-07T13:47:00;51.57;;;15.10;;
1416;SDS011;703;51.162;13.574;2022-12-07T13:49:44;54.77;;;19.50;;
1416;SDS011;703;51.162;13.574;2022-12-07T13:57:14;51.97;;;14.93;;
1416;SDS011;703;51.162;13.574;2022-12-07T13:59:40;49.10;;;12.63;;
1416;SDS011;703;51.162;13.574;2022-12-07T14:02:17;53.80;;;14.17;;
1416;SDS011;703;51.162;13.574;2022-12-07T14:04:43;51.90;;;15.37;;
1416;SDS011;703;51.162;13.574;2022-12-07T14:07:27;52.17;;;15.20;;
1416;SDS011;703;51.162;13.574;2022-12-07T14:09:54;52.50;;;14.23;;
1416;SDS011;703;51.162;13.574;2022-12-07T14:12:20;49.83;;;13.63;;
1416;SDS011;703;51.162;13.574;2022-12-07T14:14:47;49.53;;;12.30;;
1416;SDS011;703;51.162;13.574;2022-12-07T14:19:55;51.03;;;12.57;;
1416;SDS011;703;51.162;13.574;2022-12-07T14:22:29;53.40;;;12.30;;
1416;SDS011;703;51.162;13.574;2022-12-07T14:24:58;53.10;;;13.30;;
1416;SDS011;703;51.162;13.574;2022-12-07T14:27:31;49.07;;;13.20;;
1416;SDS011;703;51.162;13.574;2022-12-07T14:30:02;51.20;;;13.40;;
1416;SDS011;703;51.162;13.574;2022-12-07T14:32:29;49.80;;;13.80;;
1416;SDS011;703;51.162;13.574;2022-12-07T14:37:28;49.30;;;13.70;;
1416;SDS011;703;51.162;13.574;2022-12-07T14:39:54;54.90;;;13.17;;
1416;SDS011;703;51.162;13.574;2022-12-07T14:42:20;51.10;;;13.50;;
1416;SDS011;703;51.162;13.574;2022-12-07T14:44:56;52.87;;;16.50;;
1416;SDS011;703;51.162;13.574;2022-12-07T14:47:22;59.63;;;16.20;;
1416;SDS011;703;51.162;13.574;2022-12-07T14:49:49;50.20;;;14.20;;
1416;SDS011;703;51.162;13.574;2022-12-07T14:52:19;48.60;;;12.10;;
1416;SDS011;703;51.162;13.574;2022-12-07T14:54:47;51.00;;;14.13;;
1416;SDS011;703;51.162;13.574;2022-12-07T14:57:13;55.30;;;13.80;;
1416;SDS011;703;51.162;13.574;2022-12-07T14:59:40;49.57;;;12.67;;
1416;SDS011;703;51.162;13.574;2022-12-07T15:02:06;48.10;;;11.53;;
1416;SDS011;703;51.162;13.574;2022-12-07T15:04:34;50.60;;;11.40;;
1416;SDS011;703;51.162;13.574;2022-12-07T15:07:02;46.17;;;10.07;;
1416;SDS011;703;51.162;13.574;2022-12-07T15:09:29;47.03;;;10.33;;
1416;SDS011;703;51.162;13.574;2022-12-07T15:11:55;46.40;;;10.10;;
1416;SDS011;703;51.162;13.574;2022-12-07T15:14:21;48.00;;;11.20;;
1416;SDS011;703;51.162;13.574;2022-12-07T15:16:47;48.80;;;11.83;;
1416;SDS011;703;51.162;13.574;2022-12-07T15:19:17;47.57;;;11.00;;
1416;SDS011;703;51.162;13.574;2022-12-07T15:21:47;48.33;;;11.10;;
1416;SDS011;703;51.162;13.574;2022-12-07T15:24:13;48.33;;;11.07;;
1416;SDS011;703;51.162;13.574;2022-12-07T15:26:39;48.67;;;11.30;;
1416;SDS011;703;51.162;13.574;2022-12-07T15:29:06;51.00;;;14.47;;
1416;SDS011;703;51.162;13.574;2022-12-07T15:31:32;53.23;;;15.00;;
1416;SDS011;703;51.162;13.574;2022-12-07T15:33:58;50.60;;;13.93;;
1416;SDS011;703;51.162;13.574;2022-12-07T15:36:25;55.50;;;14.07;;
1416;SDS011;703;51.162;13.574;2022-12-07T15:38:52;49.80;;;12.10;;
1416;SDS011;703;51.162;13.574;2022-12-07T15:41:19;48.50;;;11.53;;
1416;SDS011;703;51.162;13.574;2022-12-07T15:43:45;49.80;;;13.03;;
1416;SDS011;703;51.162;13.574;2022-12-07T15:46:30;49.40;;;12.43;;
1416;SDS011;703;51.162;13.574;2022-12-07T15:48:57;48.93;;;11.63;;
1416;SDS011;703;51.162;13.574;2022-12-07T15:51:23;48.27;;;12.13;;
1416;SDS011;703;51.162;13.574;2022-12-07T15:53:49;54.70;;;17.07;;
1416;SDS011;703;51.162;13.574;2022-12-07T15:56:15;52.07;;;15.70;;
1416;SDS011;703;51.162;13.574;2022-12-07T15:58:41;56.03;;;18.80;;
1416;SDS011;703;51.162;13.574;2022-12-07T16:01:13;52.60;;;16.57;;
1416;SDS011;703;51.162;13.574;2022-12-07T16:03:40;50.60;;;14.63;;
1416;SDS011;703;51.162;13.574;2022-12-07T16:06:06;54.53;;;13.70;;
1416;SDS011;703;51.162;13.574;2022-12-07T16:08:32;49.07;;;12.57;;
1416;SDS011;703;51.162;13.574;2022-12-07T16:10:58;49.67;;;13.07;;
1416;SDS011;703;51.162;13.574;2022-12-07T16:13:24;50.87;;;14.77;;
1416;SDS011;703;51.162;13.574;2022-12-07T16:15:50;52.40;;;14.50;;
1416;SDS011;703;51.162;13.574;2022-12-07T16:18:16;50.37;;;13.77;;
1416;SDS011;703;51.162;13.574;2022-12-07T16:20:43;51.40;;;14.67;;
1416;SDS011;703;51.162;13.574;2022-12-07T16:23:09;50.30;;;14.93;;
1416;SDS011;703;51.162;13.574;2022-12-07T16:25:35;52.43;;;16.40;;
1416;SDS011;703;51.162;13.574;2022-12-07T16:28:01;54.73;;;18.17;;
1416;SDS011;703;51.162;13.574;2022-12-07T16:30:27;53.30;;;16.97;;
1416;SDS011;703;51.162;13.574;2022-12-07T16:32:52;53.70;;;16.57;;
1416;SDS011;703;51.162;13.574;2022-12-07T16:35:19;52.00;;;14.80;;
1416;SDS011;703;51.162;13.574;2022-12-07T16:37:45;50.47;;;14.40;;
1416;SDS011;703;51.162;13.574;2022-12-07T16:40:12;52.43;;;13.70;;
1416;SDS011;703;51.162;13.574;2022-12-07T16:42:39;60.40;;;18.17;;
1416;SDS011;703;51.162;13.574;2022-12-07T16:45:05;55.50;;;15.23;;
1416;SDS011;703;51.162;13.574;2022-12-07T16:47:31;47.70;;;10.90;;
1416;SDS011;703;51.162;13.574;2022-12-07T16:49:58;51.33;;;10.20;;
1416;SDS011;703;51.162;13.574;2022-12-07T16:52:25;47.07;;;11.57;;
1416;SDS011;703;51.162;13.574;2022-12-07T16:54:51;48.33;;;11.40;;
1416;SDS011;703;51.162;13.574;2022-12-07T16:57:17;48.33;;;10.37;;
1416;SDS011;703;51.162;13.574;2022-12-07T16:59:44;48.93;;;10.47;;
1416;SDS011;703;51.162;13.574;2022-12-07T17:02:11;50.70;;;10.53;;
1416;SDS011;703;51.162;13.574;2022-12-07T17:04:38;47.10;;;10.87;;
1416;SDS011;703;51.162;13.574;2022-12-07T17:07:08;48.87;;;10.40;;
1416;SDS011;703;51.162;13.574;2022-12-07T17:09:35;49.17;;;9.97;;
1416;SDS011;703;51.162;13.574;2022-12-07T17:12:02;47.00;;;10.27;;
1416;SDS011;703;51.162;13.574;2022-12-07T17:14:28;46.07;;;10.87;;
1416;SDS011;703;51.162;13.574;2022-12-07T17:17:13;47.77;;;10.43;;
1416;SDS011;703;51.162;13.574;2022-12-07T17:19:39;49.50;;;11.40;;
1416;SDS011;703;51.162;13.574;2022-12-07T17:22:05;46.07;;;9.30;;
1416;SDS011;703;51.162;13.574;2022-12-07T17:24:31;46.50;;;10.70;;
1416;SDS011;703;51.162;13.574;2022-12-07T17:26:57;46.47;;;9.30;;
1416;SDS011;703;51.162;13.574;2022-12-07T17:29:23;46.27;;;9.47;;
1416;SDS011;703;51.162;13.574;2022-12-07T17:31:49;48.93;;;9.70;;
1416;SDS011;703;51.162;13.574;2022-12-07T17:34:15;51.00;;;11.83;;
1416;SDS011;703;51.162;13.574;2022-12-07T17:36:42;47.50;;;10.17;;